createdAt,value
2022-09-23T00:03:24.531Z,69.50
2022-09-23T00:08:29.544Z,69.90
2022-09-23T00:13:35.587Z,69.60
2022-09-23T00:18:39.657Z,69.40
2022-09-23T00:23:44.095Z,69.60
2022-09-23T00:28:49.081Z,69.40
2022-09-23T00:33:54.521Z,69.50
2022-09-23T00:38:58.659Z,69.60
2022-09-23T00:44:03.397Z,69.60
2022-09-23T00:49:10.506Z,69.40
2022-09-23T00:54:14.533Z,69.20
2022-09-23T00:59:19.054Z,68.90
2022-09-23T01:04:24.812Z,68.70
2022-09-23T01:09:28.881Z,68.80
2022-09-23T01:14:44.477Z,68.50
2022-09-23T01:20:12.564Z,68.30
2022-09-23T01:25:38.695Z,68.20
2022-09-23T01:31:08.595Z,68.20
2022-09-23T01:36:30.360Z,68.70
2022-09-23T01:41:42.981Z,68.00
2022-09-23T01:47:02.262Z,68.30
2022-09-23T01:52:26.658Z,68.30
2022-09-23T01:57:35.809Z,68.00
2022-09-23T02:03:15.277Z,68.00
2022-09-23T02:08:24.570Z,68.30
2022-09-23T02:13:53.807Z,67.90
2022-09-23T02:19:11.860Z,68.10
2022-09-23T02:24:27.230Z,68.10
2022-09-23T02:29:52.978Z,67.80
2022-09-23T02:35:34.984Z,67.80
2022-09-23T02:40:47.951Z,67.60
2022-09-23T02:45:51.550Z,67.70
2022-09-23T02:50:55.363Z,67.50
2022-09-23T02:55:58.782Z,67.70
2022-09-23T03:01:15.615Z,67.50
2022-09-23T03:06:32.460Z,67.40
2022-09-23T03:11:39.616Z,67.30
2022-09-23T03:16:56.097Z,67.60
2022-09-23T03:22:06.032Z,67.30
2022-09-23T03:27:14.136Z,67.20
2022-09-23T03:32:20.585Z,67.30
2022-09-23T03:37:32.659Z,67.30
2022-09-23T03:42:38.316Z,67.30
2022-09-23T03:47:50.536Z,67.20
2022-09-23T03:53:23.120Z,67.20
2022-09-23T03:58:26.741Z,67.10
2022-09-23T04:03:30.881Z,67.10
2022-09-23T04:08:34.601Z,67.10
2022-09-23T04:13:38.230Z,67.00
2022-09-23T04:18:41.858Z,67.10
2022-09-23T04:23:46.803Z,67.50
2022-09-23T04:28:50.529Z,66.90
2022-09-23T04:33:54.463Z,66.90
2022-09-23T04:38:58.290Z,66.80
2022-09-23T04:44:02.525Z,66.70
2022-09-23T04:49:07.136Z,66.70
2022-09-23T04:54:14.027Z,66.70
2022-09-23T04:59:17.690Z,66.70
2022-09-23T05:04:21.417Z,66.90
2022-09-23T05:09:25.141Z,66.50
2022-09-23T05:14:28.765Z,66.60
2022-09-23T05:19:34.844Z,66.60
2022-09-23T05:24:41.954Z,66.60
2022-09-23T05:29:46.388Z,66.40
2022-09-23T05:34:50.016Z,66.40
2022-09-23T05:39:53.635Z,66.30
2022-09-23T05:44:57.361Z,66.30
2022-09-23T05:50:01.803Z,66.30
2022-09-23T05:55:06.149Z,66.30
2022-09-23T06:00:10.892Z,66.20
2022-09-23T06:05:21.750Z,66.20
2022-09-23T06:10:27.348Z,66.10
2022-09-23T06:15:33.319Z,66.10
2022-09-23T06:20:38.796Z,66.00
2022-09-23T06:25:47.446Z,66.30
2022-09-23T06:30:58.336Z,66.30
2022-09-23T06:36:03.880Z,66.50
2022-09-23T06:41:07.812Z,67.00
2022-09-23T06:46:16.109Z,66.90
2022-09-23T06:51:19.868Z,66.70
2022-09-23T06:56:24.003Z,67.00
2022-09-23T07:01:27.926Z,66.80
2022-09-23T07:06:31.682Z,67.10
2022-09-23T07:11:35.391Z,67.30
2022-09-23T07:16:39.212Z,67.40
2022-09-23T07:21:42.937Z,67.00
2022-09-23T07:26:46.666Z,67.00
2022-09-23T07:31:50.428Z,66.80
2022-09-23T07:36:54.523Z,66.60
2022-09-23T07:42:00.104Z,66.70
2022-09-23T07:47:04.431Z,66.50
2022-09-23T07:52:08.257Z,66.40
2022-09-23T07:57:12.294Z,65.80
2022-09-23T08:02:16.694Z,66.20
2022-09-23T08:07:20.567Z,65.70
2022-09-23T08:12:25.326Z,65.80
2022-09-23T08:17:28.937Z,65.10
2022-09-23T08:22:33.216Z,65.20
2022-09-23T08:27:36.998Z,65.20
2022-09-23T08:32:40.927Z,64.80
2022-09-23T08:37:45.060Z,64.80
2022-09-23T08:42:50.014Z,64.80
2022-09-23T08:48:19.841Z,64.90
2022-09-23T08:53:36.663Z,64.20
2022-09-23T08:58:56.722Z,63.80
2022-09-23T09:04:03.782Z,63.90
2022-09-23T09:09:27.552Z,63.60
2022-09-23T09:14:49.073Z,63.60
2022-09-23T09:19:57.917Z,63.60
2022-09-23T09:25:17.439Z,63.70
2022-09-23T09:30:28.903Z,63.70
2022-09-23T09:36:01.690Z,63.50
2022-09-23T09:41:14.729Z,63.80
2022-09-23T09:46:36.621Z,63.30
2022-09-23T09:51:42.563Z,63.20
2022-09-23T10:02:30.666Z,63.20
2022-09-23T10:07:35.225Z,63.50
2022-09-23T10:12:49.924Z,63.60
2022-09-23T10:17:54.559Z,63.60
2022-09-23T10:23:06.337Z,63.20
2022-09-23T10:28:37.899Z,63.50
2022-09-23T10:33:47.810Z,63.40
2022-09-23T10:39:18.718Z,63.50
2022-09-23T10:45:01.789Z,63.50
2022-09-23T10:50:47.321Z,64.00
2022-09-23T10:56:17.351Z,63.30
2022-09-23T11:02:04.899Z,63.40
2022-09-23T11:07:24.160Z,63.30
2022-09-23T11:12:55.925Z,63.10
2022-09-23T11:18:31.579Z,63.20
2022-09-23T11:24:07.429Z,63.30
2022-09-23T11:30:09.830Z,62.90
2022-09-23T11:35:51.198Z,63.10
2022-09-23T11:41:09.452Z,63.20
2022-09-23T11:46:19.662Z,63.40
2022-09-23T11:51:38.574Z,63.30
2022-09-23T11:56:49.179Z,63.80
2022-09-23T12:01:58.200Z,63.50
2022-09-23T12:07:09.852Z,63.50
2022-09-23T12:12:36.793Z,63.20
2022-09-23T12:17:57.001Z,63.00
2022-09-23T12:23:22.309Z,62.90
2022-09-23T12:28:28.593Z,63.00
2022-09-23T12:33:33.651Z,63.10
2022-09-23T12:38:49.202Z,63.10
2022-09-23T12:44:16.099Z,63.30
2022-09-23T12:49:25.794Z,63.40
2022-09-23T12:54:30.976Z,63.20
2022-09-23T13:00:17.422Z,63.50
2022-09-23T13:05:42.536Z,63.20
2022-09-23T13:10:54.960Z,63.20
2022-09-23T13:16:26.249Z,63.40
2022-09-23T13:21:48.671Z,63.60
2022-09-23T13:27:20.137Z,63.50
2022-09-23T13:32:33.169Z,63.50
2022-09-23T13:37:49.995Z,64.60
2022-09-23T13:43:03.539Z,65.20
2022-09-23T13:48:16.677Z,65.00
2022-09-23T13:53:32.176Z,64.70
2022-09-23T13:58:36.902Z,64.60
2022-09-23T14:03:40.751Z,64.70
2022-09-23T14:08:48.151Z,65.40
2022-09-23T14:13:56.287Z,65.20
2022-09-23T14:19:00.938Z,67.20
2022-09-23T14:24:10.814Z,71.70
2022-09-23T14:29:24.969Z,69.90
2022-09-23T14:34:44.281Z,70.30
2022-09-23T14:39:54.562Z,69.70
2022-09-23T14:45:02.362Z,68.30
2022-09-23T14:50:25.415Z,67.90
2022-09-23T14:55:31.536Z,67.90
2022-09-23T15:00:35.316Z,67.40
2022-09-23T15:05:45.797Z,67.70
2022-09-23T15:10:50.649Z,67.80
2022-09-23T15:15:55.826Z,66.90
2022-09-23T15:21:08.537Z,67.20
2022-09-23T15:26:55.451Z,66.50
2022-09-23T15:32:01.039Z,66.60
2022-09-23T15:37:12.672Z,66.90
2022-09-23T15:42:21.931Z,66.10
2022-09-23T15:47:33.996Z,66.30
2022-09-23T15:52:38.441Z,66.50
2022-09-23T16:03:14.862Z,66.60
2022-09-23T16:08:23.820Z,66.40
2022-09-23T16:13:36.219Z,66.40
2022-09-23T16:18:55.439Z,65.70
2022-09-23T16:24:15.162Z,66.70
2022-09-23T16:29:32.117Z,67.10
2022-09-23T16:34:46.325Z,67.00
2022-09-23T16:39:56.874Z,67.10
2022-09-23T16:45:24.055Z,67.10
2022-09-23T16:50:41.253Z,66.90
2022-09-23T16:56:01.387Z,66.90
2022-09-23T17:01:31.260Z,66.80
2022-09-23T17:12:48.136Z,67.30
2022-09-23T17:18:01.892Z,66.50
2022-09-23T17:23:06.507Z,67.00
2022-09-23T17:28:16.418Z,66.90
2022-09-23T17:33:31.137Z,66.50
2022-09-23T17:38:52.767Z,66.40
2022-09-23T17:44:04.905Z,66.40
2022-09-23T17:49:10.353Z,66.60
2022-09-23T17:54:20.013Z,66.20
2022-09-23T17:59:23.756Z,66.40
2022-09-23T18:04:34.583Z,66.80
2022-09-23T18:09:41.489Z,66.60
2022-09-23T18:14:48.645Z,66.20
2022-09-23T18:19:56.056Z,66.40
2022-09-23T18:25:28.499Z,66.30
2022-09-23T18:30:54.674Z,66.40
2022-09-23T18:36:05.153Z,66.60
2022-09-23T18:41:21.636Z,66.50
2022-09-23T18:46:30.010Z,66.80
2022-09-23T18:52:10.775Z,67.00
2022-09-23T18:57:18.383Z,67.10
2022-09-23T19:03:15.584Z,67.20
2022-09-23T19:08:45.108Z,67.70
2022-09-23T19:14:03.623Z,67.70
2022-09-23T19:19:11.047Z,67.60
2022-09-23T19:24:23.255Z,68.10
2022-09-23T19:40:37.579Z,68.70
2022-09-23T19:46:18.537Z,71.60
2022-09-23T19:52:07.792Z,71.00
2022-09-23T19:57:16.504Z,71.30
2022-09-23T20:02:59.573Z,71.20
2022-09-23T20:08:09.825Z,71.30
2022-09-23T20:13:21.909Z,70.90
2022-09-23T20:18:35.700Z,69.90
2022-09-23T20:23:45.181Z,70.20
2022-09-23T20:28:50.954Z,69.20
2022-09-23T20:34:12.478Z,70.30
2022-09-23T20:39:25.297Z,70.10
2022-09-23T20:44:30.080Z,70.10
2022-09-23T20:49:51.984Z,69.80
2022-09-23T20:55:09.160Z,69.90
2022-09-23T21:00:16.016Z,69.50
2022-09-23T21:05:20.349Z,69.40
2022-09-23T21:16:57.108Z,69.40
2022-09-23T21:22:12.412Z,70.90
2022-09-23T21:27:53.408Z,70.10
2022-09-23T21:32:57.190Z,70.50
2022-09-23T21:38:25.623Z,71.60
2022-09-23T21:43:46.079Z,73.30
2022-09-23T21:49:19.600Z,74.30
2022-09-23T21:54:55.596Z,75.00
2022-09-23T22:01:08.793Z,75.00
2022-09-23T22:06:30.593Z,74.40
2022-09-23T22:12:02.286Z,74.50
2022-09-23T22:17:14.245Z,74.40
2022-09-23T22:22:38.992Z,74.20
2022-09-23T22:28:03.916Z,74.20
2022-09-23T22:33:28.072Z,74.30
2022-09-23T22:38:41.956Z,73.80
2022-09-23T22:43:46.926Z,73.80
2022-09-23T22:48:54.846Z,73.90
2022-09-23T22:54:02.775Z,74.30
2022-09-23T22:59:09.162Z,73.70
2022-09-23T23:04:14.562Z,73.50
2022-09-23T23:09:23.799Z,73.40
2022-09-23T23:14:29.135Z,73.20
2022-09-23T23:19:37.679Z,73.10
2022-09-23T23:24:48.231Z,73.00
2022-09-23T23:29:54.428Z,72.60
2022-09-23T23:35:04.171Z,72.20
2022-09-23T23:40:15.523Z,71.60
2022-09-23T23:45:22.313Z,71.50
2022-09-23T23:50:31.033Z,71.70
2022-09-23T23:55:41.985Z,71.60
